createdAt,value
2019-03-11T00:00:22.493Z,18.43
2019-03-11T00:00:57.524Z,21.77
2019-03-11T00:01:30.590Z,16.33
2019-03-11T00:02:01.824Z,20.10
2019-03-11T00:02:33.067Z,22.00
2019-03-11T00:03:04.271Z,20.33
2019-03-11T00:03:35.430Z,16.47
2019-03-11T00:04:07.521Z,20.03
2019-03-11T00:04:39.482Z,20.67
2019-03-11T00:05:10.749Z,18.90
2019-03-11T00:05:42.011Z,23.33
2019-03-11T00:06:13.229Z,21.30
2019-03-11T00:06:44.455Z,23.67
2019-03-11T00:07:15.734Z,14.17
2019-03-11T00:07:46.991Z,24.97
2019-03-11T00:08:18.173Z,19.37
2019-03-11T00:08:49.378Z,21.00
2019-03-11T00:09:20.538Z,17.23
2019-03-11T00:09:51.751Z,15.93
2019-03-11T00:10:22.907Z,18.57
2019-03-11T00:10:54.138Z,21.20
2019-03-11T00:11:25.292Z,14.87
2019-03-11T00:11:56.491Z,21.83
2019-03-11T00:12:27.652Z,15.47
2019-03-11T00:12:58.855Z,16.63
2019-03-11T00:13:30.012Z,16.27
2019-03-11T00:14:01.222Z,24.07
2019-03-11T00:14:32.376Z,22.37
2019-03-11T00:15:06.812Z,19.00
2019-03-11T00:15:38.049Z,20.37
2019-03-11T00:16:09.248Z,18.80
2019-03-11T00:16:40.424Z,19.20
2019-03-11T00:17:11.630Z,27.60
2019-03-11T00:17:42.795Z,18.77
2019-03-11T00:18:14.003Z,15.83
2019-03-11T00:18:45.174Z,21.10
2019-03-11T00:19:16.445Z,22.47
2019-03-11T00:19:47.614Z,18.63
2019-03-11T00:20:18.788Z,28.10
2019-03-11T00:20:49.972Z,21.30
2019-03-11T00:21:21.158Z,25.37
2019-03-11T00:21:52.378Z,15.87
2019-03-11T00:22:23.620Z,20.50
2019-03-11T00:22:54.793Z,17.73
2019-03-11T00:23:25.984Z,16.50
2019-03-11T00:23:57.159Z,18.77
2019-03-11T00:24:28.324Z,21.60
2019-03-11T00:24:59.513Z,22.10
2019-03-11T00:25:30.747Z,18.63
2019-03-11T00:26:01.941Z,20.53
2019-03-11T00:26:33.107Z,15.70
2019-03-11T00:27:04.292Z,17.40
2019-03-11T00:27:35.477Z,19.37
2019-03-11T00:28:06.723Z,19.23
2019-03-11T00:28:37.955Z,19.20
2019-03-11T00:29:09.471Z,18.43
2019-03-11T00:29:40.651Z,18.57
2019-03-11T00:30:12.349Z,25.27
2019-03-11T00:30:43.523Z,24.47
2019-03-11T00:31:15.699Z,22.80
2019-03-11T00:31:46.885Z,22.83
2019-03-11T00:32:18.074Z,24.97
2019-03-11T00:32:49.302Z,21.23
2019-03-11T00:33:20.499Z,25.43
2019-03-11T00:33:51.690Z,24.03
2019-03-11T00:34:22.968Z,27.47
2019-03-11T00:34:54.177Z,22.30
2019-03-11T00:35:25.364Z,29.47
2019-03-11T00:35:56.558Z,26.63
2019-03-11T00:36:27.724Z,22.70
2019-03-11T00:36:59.059Z,23.60
2019-03-11T00:37:30.215Z,23.33
2019-03-11T00:38:01.448Z,19.57
2019-03-11T00:38:32.601Z,24.57
2019-03-11T00:39:05.108Z,23.87
2019-03-11T00:39:38.026Z,22.30
2019-03-11T00:40:15.687Z,17.47
2019-03-11T00:40:46.854Z,18.17
2019-03-11T00:41:18.099Z,20.50
2019-03-11T00:41:49.278Z,18.27
2019-03-11T00:42:20.590Z,21.17
2019-03-11T00:42:51.750Z,20.00
2019-03-11T00:43:22.948Z,20.17
2019-03-11T00:43:54.114Z,23.97
2019-03-11T00:44:25.332Z,20.77
2019-03-11T00:44:56.490Z,23.53
2019-03-11T00:45:27.681Z,20.27
2019-03-11T00:45:58.826Z,20.10
2019-03-11T00:46:29.993Z,22.20
2019-03-11T00:47:01.171Z,21.13
2019-03-11T00:47:32.334Z,21.57
2019-03-11T00:48:03.495Z,25.03
2019-03-11T00:48:34.663Z,26.43
2019-03-11T00:49:06.045Z,22.13
2019-03-11T00:49:37.190Z,18.20
2019-03-11T00:50:09.756Z,21.60
2019-03-11T00:50:40.895Z,17.47
2019-03-11T00:51:12.047Z,22.37
2019-03-11T00:51:43.222Z,20.00
2019-03-11T00:52:14.387Z,17.67
2019-03-11T00:52:45.636Z,17.60
2019-03-11T00:53:16.921Z,23.57
2019-03-11T00:53:48.081Z,18.30
2019-03-11T00:54:19.247Z,14.00
2019-03-11T00:54:50.445Z,17.60
2019-03-11T00:55:21.616Z,16.37
2019-03-11T00:55:52.776Z,17.70
2019-03-11T00:56:23.985Z,16.17
2019-03-11T00:56:55.131Z,19.23
2019-03-11T00:57:26.339Z,17.27
2019-03-11T00:57:57.516Z,15.60
2019-03-11T00:58:28.707Z,20.50
2019-03-11T00:58:59.883Z,18.90
2019-03-11T00:59:31.096Z,18.73
2019-03-11T01:00:08.501Z,14.63
2019-03-11T01:00:39.826Z,22.13
2019-03-11T01:01:11.112Z,18.73
2019-03-11T01:01:43.310Z,26.07
2019-03-11T01:02:14.497Z,16.50
2019-03-11T01:02:45.692Z,15.20
2019-03-11T01:03:16.879Z,21.23
2019-03-11T01:03:48.054Z,15.40
2019-03-11T01:04:19.232Z,22.50
2019-03-11T01:04:50.528Z,17.43
2019-03-11T01:05:21.722Z,20.87
2019-03-11T01:05:52.884Z,17.80
2019-03-11T01:06:24.086Z,21.87
2019-03-11T01:06:55.249Z,19.27
2019-03-11T01:07:27.455Z,15.83
2019-03-11T01:07:58.614Z,23.57
2019-03-11T01:08:29.832Z,17.90
2019-03-11T01:09:01.073Z,24.67
2019-03-11T01:09:32.326Z,17.40
2019-03-11T01:10:06.986Z,16.57
2019-03-11T01:10:38.288Z,14.37
2019-03-11T01:11:09.539Z,18.93
2019-03-11T01:11:40.726Z,17.97
2019-03-11T01:12:11.927Z,16.13
2019-03-11T01:12:43.099Z,15.47
2019-03-11T01:13:14.300Z,17.57
2019-03-11T01:13:45.477Z,18.10
2019-03-11T01:14:16.651Z,17.23
2019-03-11T01:14:47.805Z,23.23
2019-03-11T01:15:18.992Z,15.50
2019-03-11T01:15:50.280Z,18.57
2019-03-11T01:16:21.423Z,21.63
2019-03-11T01:16:52.621Z,21.27
2019-03-11T01:17:23.806Z,22.03
2019-03-11T01:17:55.013Z,20.03
2019-03-11T01:18:26.177Z,16.33
2019-03-11T01:18:57.379Z,15.57
2019-03-11T01:19:28.546Z,17.30
2019-03-11T01:19:59.739Z,20.53
2019-03-11T01:20:30.917Z,18.30
2019-03-11T01:21:02.102Z,20.60
2019-03-11T01:21:33.297Z,15.07
2019-03-11T01:22:04.483Z,19.53
2019-03-11T01:22:35.980Z,15.70
2019-03-11T01:23:07.157Z,14.63
2019-03-11T01:23:38.348Z,16.60
2019-03-11T01:24:09.556Z,12.97
2019-03-11T01:24:40.745Z,14.13
2019-03-11T01:25:12.551Z,17.23
2019-03-11T01:25:43.732Z,21.13
2019-03-11T01:26:14.916Z,17.20
2019-03-11T01:26:47.114Z,15.27
2019-03-11T01:27:18.287Z,17.37
2019-03-11T01:27:49.478Z,19.37
2019-03-11T01:28:21.660Z,17.03
2019-03-11T01:28:52.828Z,15.30
2019-03-11T01:29:23.995Z,17.83
2019-03-11T01:29:55.184Z,14.70
2019-03-11T01:30:26.410Z,20.83
2019-03-11T01:30:57.600Z,21.67
2019-03-11T01:31:28.819Z,18.40
2019-03-11T01:31:59.986Z,22.57
2019-03-11T01:32:31.201Z,15.47
2019-03-11T01:33:02.362Z,13.97
2019-03-11T01:33:33.628Z,16.10
2019-03-11T01:34:04.837Z,18.53
2019-03-11T01:34:36.066Z,23.13
2019-03-11T01:35:08.342Z,18.17
2019-03-11T01:35:40.791Z,16.53
2019-03-11T01:36:11.950Z,17.83
2019-03-11T01:36:43.176Z,21.33
2019-03-11T01:37:14.319Z,20.07
2019-03-11T01:37:45.538Z,16.37
2019-03-11T01:38:17.787Z,14.00
2019-03-11T01:38:48.983Z,20.10
2019-03-11T01:39:20.164Z,21.67
2019-03-11T01:39:51.355Z,18.33
2019-03-11T01:40:22.533Z,14.43
2019-03-11T01:40:53.707Z,17.50
2019-03-11T01:41:24.856Z,19.27
2019-03-11T01:41:56.089Z,18.37
2019-03-11T01:42:27.239Z,18.77
2019-03-11T01:42:58.454Z,18.60
2019-03-11T01:43:29.605Z,21.03
2019-03-11T01:44:00.815Z,20.67
2019-03-11T01:44:32.006Z,18.67
2019-03-11T01:45:08.911Z,16.87
2019-03-11T01:45:40.061Z,17.50
2019-03-11T01:46:11.287Z,13.17
2019-03-11T01:46:42.450Z,15.53
2019-03-11T01:47:13.776Z,16.77
2019-03-11T01:47:44.948Z,17.63
2019-03-11T01:48:16.181Z,19.03
2019-03-11T01:48:47.330Z,14.03
2019-03-11T01:49:18.534Z,15.67
2019-03-11T01:49:50.074Z,15.03
2019-03-11T01:50:21.281Z,14.83
2019-03-11T01:50:52.452Z,16.73
2019-03-11T01:51:23.712Z,15.43
2019-03-11T01:51:54.983Z,12.67
2019-03-11T01:52:27.218Z,15.07
2019-03-11T01:52:58.458Z,19.60
2019-03-11T01:53:29.696Z,16.80
2019-03-11T01:54:00.922Z,19.70
2019-03-11T01:54:32.175Z,14.60
2019-03-11T01:55:06.512Z,16.07
2019-03-11T01:55:37.754Z,18.60
2019-03-11T01:56:08.986Z,13.83
2019-03-11T01:56:40.139Z,17.00
2019-03-11T01:57:11.354Z,14.93
2019-03-11T01:57:42.511Z,16.80
2019-03-11T01:58:13.733Z,21.10
2019-03-11T01:58:44.934Z,20.40
2019-03-11T01:59:16.136Z,16.83
2019-03-11T01:59:47.301Z,17.70
2019-03-11T02:00:18.518Z,15.63
2019-03-11T02:00:49.687Z,19.27
2019-03-11T02:01:20.886Z,13.33
2019-03-11T02:01:52.049Z,15.23
2019-03-11T02:02:23.256Z,14.23
2019-03-11T02:02:54.413Z,16.83
2019-03-11T02:03:25.657Z,15.40
2019-03-11T02:03:56.811Z,15.90
2019-03-11T02:04:28.027Z,17.50
2019-03-11T02:04:59.233Z,12.83
2019-03-11T02:05:30.423Z,15.53
2019-03-11T02:06:01.631Z,12.50
2019-03-11T02:06:32.816Z,12.03
2019-03-11T02:07:05.143Z,12.87
2019-03-11T02:07:36.301Z,16.77
2019-03-11T02:08:08.911Z,14.67
2019-03-11T02:08:40.087Z,16.20
2019-03-11T02:09:11.304Z,15.60
2019-03-11T02:09:42.656Z,17.27
2019-03-11T02:10:15.698Z,12.03
2019-03-11T02:10:46.860Z,15.33
2019-03-11T02:11:18.074Z,16.60
2019-03-11T02:11:49.235Z,13.47
2019-03-11T02:12:20.439Z,10.77
2019-03-11T02:12:51.595Z,13.37
2019-03-11T02:13:22.801Z,17.67
2019-03-11T02:13:53.955Z,16.47
2019-03-11T02:14:25.266Z,13.47
2019-03-11T02:14:56.425Z,11.57
2019-03-11T02:15:27.628Z,14.47
2019-03-11T02:15:58.839Z,12.23
2019-03-11T02:16:30.084Z,21.27
2019-03-11T02:17:01.345Z,13.17
2019-03-11T02:17:32.578Z,12.17
2019-03-11T02:18:03.841Z,15.37
2019-03-11T02:18:35.160Z,13.33
2019-03-11T02:19:06.672Z,12.77
2019-03-11T02:19:37.940Z,14.60
2019-03-11T02:20:16.909Z,10.13
2019-03-11T02:20:48.152Z,12.00
2019-03-11T02:21:19.390Z,15.60
2019-03-11T02:21:50.650Z,19.40
2019-03-11T02:22:21.942Z,15.93
2019-03-11T02:22:53.105Z,16.00
2019-03-11T02:23:24.294Z,14.50
2019-03-11T02:23:55.454Z,17.03
2019-03-11T02:24:26.638Z,16.83
2019-03-11T02:24:57.809Z,14.77
2019-03-11T02:25:29.037Z,16.63
2019-03-11T02:26:00.181Z,25.00
2019-03-11T02:26:32.484Z,19.83
2019-03-11T02:27:03.663Z,19.60
2019-03-11T02:27:34.924Z,14.43
2019-03-11T02:28:06.157Z,14.00
2019-03-11T02:28:37.380Z,16.93
2019-03-11T02:29:08.546Z,12.70
2019-03-11T02:29:39.745Z,16.60
2019-03-11T02:30:15.578Z,17.20
2019-03-11T02:30:46.781Z,16.27
2019-03-11T02:31:18.017Z,16.07
2019-03-11T02:31:49.272Z,14.80
2019-03-11T02:32:20.502Z,14.60
2019-03-11T02:32:51.728Z,13.97
2019-03-11T02:33:22.962Z,12.17
2019-03-11T02:33:54.381Z,13.53
2019-03-11T02:34:25.629Z,12.73
2019-03-11T02:34:56.858Z,11.80
2019-03-11T02:35:31.114Z,13.80
2019-03-11T02:36:02.343Z,18.80
2019-03-11T02:36:33.556Z,14.47
2019-03-11T02:37:04.712Z,14.63
2019-03-11T02:37:35.921Z,15.97
2019-03-11T02:38:07.074Z,16.27
2019-03-11T02:38:38.261Z,13.97
2019-03-11T02:39:09.627Z,15.30
2019-03-11T02:39:40.768Z,13.50
2019-03-11T02:40:14.958Z,13.90
2019-03-11T02:40:46.294Z,13.13
2019-03-11T02:41:17.515Z,11.97
2019-03-11T02:41:48.707Z,13.73
2019-03-11T02:42:19.912Z,23.60
2019-03-11T02:42:51.170Z,11.77
2019-03-11T02:43:22.370Z,14.63
2019-03-11T02:43:53.549Z,18.07
2019-03-11T02:44:24.723Z,15.47
2019-03-11T02:44:55.919Z,12.87
2019-03-11T02:45:27.217Z,13.73
2019-03-11T02:45:58.500Z,20.70
2019-03-11T02:46:29.702Z,10.47
2019-03-11T02:47:00.869Z,13.57
2019-03-11T02:47:32.094Z,11.67
2019-03-11T02:48:03.249Z,17.17
2019-03-11T02:48:34.457Z,12.00
2019-03-11T02:49:05.623Z,13.43
2019-03-11T02:49:36.929Z,16.17
2019-03-11T02:50:09.469Z,13.07
2019-03-11T02:50:40.673Z,13.53
2019-03-11T02:51:11.826Z,13.70
2019-03-11T02:51:43.051Z,16.33
2019-03-11T02:52:14.195Z,13.70
2019-03-11T02:52:45.384Z,16.67
2019-03-11T02:53:16.549Z,12.97
2019-03-11T02:53:47.767Z,17.97
2019-03-11T02:54:18.924Z,14.47
2019-03-11T02:54:50.130Z,13.53
2019-03-11T02:55:21.301Z,15.63
2019-03-11T02:55:52.535Z,14.20
2019-03-11T02:56:23.707Z,12.93
2019-03-11T02:56:54.915Z,10.80
2019-03-11T02:57:26.066Z,17.33
2019-03-11T02:57:57.279Z,17.83
2019-03-11T02:58:28.444Z,20.70
2019-03-11T02:58:59.783Z,13.53
2019-03-11T02:59:32.433Z,13.73
2019-03-11T03:00:17.926Z,9.53
2019-03-11T03:00:50.973Z,12.37
2019-03-11T03:01:31.031Z,12.03
2019-03-11T03:02:07.029Z,13.93
2019-03-11T03:02:46.847Z,14.60
2019-03-11T03:03:29.036Z,11.33
2019-03-11T03:04:02.169Z,13.87
2019-03-11T03:04:35.247Z,16.17
2019-03-11T03:05:12.464Z,12.07
2019-03-11T03:05:45.625Z,11.20
2019-03-11T03:06:17.159Z,10.97
2019-03-11T03:06:49.384Z,12.67
2019-03-11T03:07:20.637Z,14.60
2019-03-11T03:07:51.872Z,11.73
2019-03-11T03:08:23.061Z,14.90
2019-03-11T03:08:54.257Z,15.07
2019-03-11T03:09:25.516Z,11.83
2019-03-11T03:09:56.730Z,15.07
2019-03-11T03:10:27.954Z,13.43
2019-03-11T03:10:59.115Z,14.90
2019-03-11T03:11:30.340Z,12.87
2019-03-11T03:12:01.522Z,12.23
2019-03-11T03:12:32.824Z,13.70
2019-03-11T03:13:03.986Z,10.53
2019-03-11T03:13:35.178Z,13.93
2019-03-11T03:14:06.438Z,14.90
2019-03-11T03:14:37.670Z,9.50
2019-03-11T03:15:09.028Z,11.03
2019-03-11T03:15:40.235Z,14.60
2019-03-11T03:16:11.396Z,12.93
2019-03-11T03:16:42.595Z,10.97
2019-03-11T03:17:13.772Z,10.50
2019-03-11T03:17:44.986Z,9.60
2019-03-11T03:18:16.155Z,11.50
2019-03-11T03:18:47.344Z,14.20
2019-03-11T03:19:18.504Z,12.67
2019-03-11T03:19:49.719Z,11.00
2019-03-11T03:20:20.865Z,11.13
2019-03-11T03:20:52.072Z,12.57
2019-03-11T03:21:23.217Z,12.63
2019-03-11T03:21:54.422Z,10.53
2019-03-11T03:22:25.585Z,9.83
2019-03-11T03:22:56.793Z,13.87
2019-03-11T03:23:27.940Z,9.83
2019-03-11T03:23:59.147Z,11.60
2019-03-11T03:24:30.311Z,12.97
2019-03-11T03:25:01.517Z,11.23
2019-03-11T03:25:34.727Z,13.00
2019-03-11T03:26:05.918Z,14.07
2019-03-11T03:26:37.059Z,18.33
2019-03-11T03:27:08.284Z,16.37
2019-03-11T03:27:39.562Z,11.23
2019-03-11T03:28:11.010Z,13.93
2019-03-11T03:28:42.239Z,16.27
2019-03-11T03:29:13.487Z,15.33
2019-03-11T03:29:44.745Z,18.83
2019-03-11T03:30:19.191Z,11.87
2019-03-11T03:30:50.595Z,12.47
2019-03-11T03:31:21.910Z,11.13
2019-03-11T03:31:53.222Z,10.80
2019-03-11T03:32:24.506Z,17.30
2019-03-11T03:32:55.713Z,13.40
2019-03-11T03:33:26.891Z,11.07
2019-03-11T03:33:58.081Z,10.17
2019-03-11T03:34:29.330Z,11.10
2019-03-11T03:35:00.852Z,13.87
2019-03-11T03:35:32.202Z,13.80
2019-03-11T03:36:03.413Z,9.00
2019-03-11T03:36:34.653Z,12.13
2019-03-11T03:37:05.904Z,6.60
2019-03-11T03:37:37.048Z,11.13
2019-03-11T03:38:08.278Z,7.27
2019-03-11T03:38:39.438Z,9.97
2019-03-11T03:39:10.622Z,11.93
2019-03-11T03:39:41.799Z,14.80
2019-03-11T03:40:14.568Z,10.93
2019-03-11T03:40:45.720Z,10.33
2019-03-11T03:41:16.911Z,8.03
2019-03-11T03:41:48.052Z,11.17
2019-03-11T03:42:19.216Z,9.37
2019-03-11T03:42:50.509Z,11.53
2019-03-11T03:43:22.032Z,11.20
2019-03-11T03:43:53.253Z,11.13
2019-03-11T03:44:24.427Z,13.00
2019-03-11T03:45:28.252Z,9.57
2019-03-11T03:45:59.422Z,11.63
2019-03-11T03:46:30.598Z,12.07
2019-03-11T03:47:01.759Z,13.83
2019-03-11T03:47:33.921Z,8.50
2019-03-11T03:48:05.115Z,9.70
2019-03-11T03:48:36.425Z,6.60
2019-03-11T03:49:07.671Z,12.83
2019-03-11T03:49:38.849Z,7.80
2019-03-11T03:50:10.006Z,10.00
2019-03-11T03:50:41.172Z,10.47
2019-03-11T03:51:12.334Z,8.37
2019-03-11T03:51:43.507Z,11.97
2019-03-11T03:52:14.661Z,9.07
2019-03-11T03:52:45.840Z,8.40
2019-03-11T03:53:17.016Z,9.70
2019-03-11T03:53:48.185Z,10.53
2019-03-11T03:54:19.394Z,12.13
2019-03-11T03:54:50.549Z,10.20
2019-03-11T03:55:21.746Z,10.03
2019-03-11T03:55:52.911Z,5.97
2019-03-11T03:56:24.112Z,9.50
2019-03-11T03:56:55.278Z,16.23
2019-03-11T03:57:26.465Z,9.37
2019-03-11T03:57:57.613Z,11.03
2019-03-11T03:58:28.883Z,10.27
2019-03-11T03:59:00.115Z,14.93
2019-03-11T03:59:31.252Z,9.13
2019-03-11T04:00:04.868Z,8.53
2019-03-11T04:00:36.372Z,10.70
2019-03-11T04:01:07.550Z,5.80
2019-03-11T04:01:38.909Z,10.73
2019-03-11T04:02:10.059Z,8.97
2019-03-11T04:02:41.224Z,11.13
2019-03-11T04:03:12.420Z,12.30
2019-03-11T04:03:43.569Z,9.63
2019-03-11T04:04:14.715Z,8.87
2019-03-11T04:04:45.886Z,11.27
2019-03-11T04:05:17.092Z,12.00
2019-03-11T04:05:48.365Z,11.70
2019-03-11T04:06:19.538Z,7.77
2019-03-11T04:06:50.723Z,11.30
2019-03-11T04:07:21.922Z,8.63
2019-03-11T04:07:53.104Z,8.97
2019-03-11T04:08:24.295Z,9.20
2019-03-11T04:08:55.438Z,7.87
2019-03-11T04:09:26.652Z,12.57
2019-03-11T04:09:57.815Z,12.63
2019-03-11T04:10:32.298Z,9.17
2019-03-11T04:11:02.084Z,12.40
2019-03-11T04:11:33.292Z,7.53
2019-03-11T04:12:04.458Z,10.90
2019-03-11T04:12:35.927Z,8.43
2019-03-11T04:13:08.247Z,16.83
2019-03-11T04:13:39.665Z,10.97
2019-03-11T04:14:10.896Z,7.00
2019-03-11T04:14:42.134Z,7.63
2019-03-11T04:15:14.664Z,7.20
2019-03-11T04:15:45.920Z,6.87
2019-03-11T04:16:17.123Z,8.67
2019-03-11T04:16:48.354Z,8.93
2019-03-11T04:17:19.580Z,6.07
2019-03-11T04:17:50.871Z,7.37
2019-03-11T04:18:22.141Z,6.67
2019-03-11T04:18:54.302Z,9.57
2019-03-11T04:19:28.920Z,5.33
2019-03-11T04:19:58.579Z,8.17
2019-03-11T04:20:29.794Z,9.93
2019-03-11T04:21:00.957Z,10.70
2019-03-11T04:21:32.178Z,11.33
2019-03-11T04:22:03.336Z,6.73
2019-03-11T04:22:34.643Z,9.43
2019-03-11T04:23:06.032Z,9.60
2019-03-11T04:23:37.235Z,7.30
2019-03-11T04:24:08.383Z,10.47
2019-03-11T04:24:39.643Z,7.20
2019-03-11T04:25:11.304Z,9.63
2019-03-11T04:25:42.525Z,10.73
2019-03-11T04:26:13.672Z,8.13
2019-03-11T04:26:51.073Z,9.60
2019-03-11T04:27:23.237Z,12.77
2019-03-11T04:27:54.437Z,14.67
2019-03-11T04:28:25.619Z,8.87
2019-03-11T04:28:56.868Z,10.03
2019-03-11T04:29:28.118Z,10.07
2019-03-11T04:29:59.325Z,10.03
2019-03-11T04:30:30.565Z,10.17
2019-03-11T04:31:01.802Z,11.63
2019-03-11T04:31:33.035Z,10.90
2019-03-11T04:32:04.292Z,12.60
2019-03-11T04:32:35.832Z,14.83
2019-03-11T04:33:07.106Z,13.53
2019-03-11T04:33:38.316Z,7.00
2019-03-11T04:34:09.483Z,8.47
2019-03-11T04:34:40.679Z,9.37
2019-03-11T04:35:11.933Z,7.50
2019-03-11T04:35:43.130Z,12.13
2019-03-11T04:36:15.273Z,11.63
2019-03-11T04:36:46.480Z,7.27
2019-03-11T04:37:17.618Z,10.17
2019-03-11T04:37:48.818Z,11.10
2019-03-11T04:38:19.994Z,12.47
2019-03-11T04:38:51.175Z,14.07
2019-03-11T04:39:22.311Z,11.57
2019-03-11T04:39:53.520Z,10.20
2019-03-11T04:40:24.686Z,14.30
2019-03-11T04:40:55.891Z,9.20
2019-03-11T04:41:27.047Z,9.20
2019-03-11T04:41:58.255Z,15.17
2019-03-11T04:42:29.411Z,12.73
2019-03-11T04:43:00.604Z,13.83
2019-03-11T04:43:31.779Z,10.30
2019-03-11T04:44:03.023Z,9.63
2019-03-11T04:44:34.245Z,12.97
2019-03-11T04:45:11.285Z,11.97
2019-03-11T04:45:42.594Z,12.33
2019-03-11T04:46:13.831Z,6.83
2019-03-11T04:46:45.079Z,10.63
2019-03-11T04:47:16.315Z,10.00
2019-03-11T04:47:47.603Z,11.77
2019-03-11T04:48:18.851Z,8.57
2019-03-11T04:48:50.057Z,8.37
2019-03-11T04:49:21.250Z,11.87
2019-03-11T04:49:52.467Z,9.20
2019-03-11T04:50:23.623Z,11.10
2019-03-11T04:50:54.848Z,11.67
2019-03-11T04:51:26.012Z,12.80
2019-03-11T04:51:57.258Z,11.00
2019-03-11T04:52:28.424Z,11.33
2019-03-11T04:52:59.635Z,13.23
2019-03-11T04:53:30.794Z,12.23
2019-03-11T04:54:02.007Z,15.63
2019-03-11T04:54:33.146Z,11.17
2019-03-11T04:55:07.962Z,16.57
2019-03-11T04:55:39.112Z,15.30
2019-03-11T04:56:10.324Z,11.70
2019-03-11T04:56:41.493Z,9.53
2019-03-11T04:57:12.704Z,10.03
2019-03-11T04:57:54.787Z,12.47
2019-03-11T04:58:25.981Z,14.90
2019-03-11T04:59:07.935Z,13.43
2019-03-11T04:59:39.453Z,10.97
2019-03-11T05:00:19.373Z,8.33
2019-03-11T05:00:50.617Z,11.67
2019-03-11T05:01:21.855Z,12.77
2019-03-11T05:01:53.140Z,25.97
2019-03-11T05:02:24.377Z,29.50
2019-03-11T05:02:55.637Z,22.37
2019-03-11T05:03:26.929Z,21.90
2019-03-11T05:03:58.125Z,21.77
2019-03-11T05:04:29.301Z,23.20
2019-03-11T05:05:00.516Z,20.20
2019-03-11T05:05:31.704Z,14.27
2019-03-11T05:06:02.868Z,17.00
2019-03-11T05:06:34.058Z,17.30
2019-03-11T05:07:05.222Z,12.93
2019-03-11T05:07:36.454Z,8.93
2019-03-11T05:08:08.883Z,15.03
2019-03-11T05:08:40.120Z,11.73
2019-03-11T05:09:11.369Z,10.43
2019-03-11T05:09:42.523Z,13.60
2019-03-11T05:10:16.196Z,13.07
2019-03-11T05:10:46.821Z,10.73
2019-03-11T05:11:18.028Z,8.07
2019-03-11T05:11:49.201Z,12.53
2019-03-11T05:12:20.417Z,12.00
2019-03-11T05:12:51.574Z,7.63
2019-03-11T05:13:22.798Z,10.37
2019-03-11T05:13:53.985Z,10.27
2019-03-11T05:14:25.188Z,8.37
2019-03-11T05:14:56.354Z,11.30
2019-03-11T05:15:27.532Z,9.87
2019-03-11T05:15:58.722Z,10.60
2019-03-11T05:16:29.923Z,12.03
2019-03-11T05:17:01.155Z,13.50
2019-03-11T05:17:32.391Z,11.47
2019-03-11T05:18:03.641Z,15.77
2019-03-11T05:18:34.817Z,16.80
2019-03-11T05:19:06.015Z,17.03
2019-03-11T05:19:37.203Z,18.30
2019-03-11T05:20:13.255Z,14.43
2019-03-11T05:20:44.495Z,14.53
2019-03-11T05:21:15.730Z,18.27
2019-03-11T05:21:46.924Z,15.67
2019-03-11T05:22:18.116Z,11.40
2019-03-11T05:22:49.303Z,15.67
2019-03-11T05:23:20.493Z,16.27
2019-03-11T05:23:51.696Z,11.63
2019-03-11T05:24:22.887Z,11.93
2019-03-11T05:24:54.089Z,10.67
2019-03-11T05:25:25.273Z,11.63
2019-03-11T05:25:56.460Z,12.63
2019-03-11T05:26:27.664Z,14.10
2019-03-11T05:26:58.839Z,16.40
2019-03-11T05:27:30.075Z,17.30
2019-03-11T05:28:01.260Z,14.93
2019-03-11T05:28:32.465Z,11.63
2019-03-11T05:29:03.663Z,14.67
2019-03-11T05:29:34.830Z,14.80
2019-03-11T05:30:19.332Z,14.17
2019-03-11T05:30:50.509Z,13.23
2019-03-11T05:31:21.754Z,12.60
2019-03-11T05:31:52.920Z,13.33
2019-03-11T05:32:24.140Z,14.33
2019-03-11T05:32:55.309Z,17.57
2019-03-11T05:33:26.559Z,16.97
2019-03-11T05:33:57.796Z,16.57
2019-03-11T05:34:30.122Z,14.80
2019-03-11T05:35:01.263Z,15.97
2019-03-11T05:35:32.503Z,16.97
2019-03-11T05:36:03.648Z,10.53
2019-03-11T05:36:34.855Z,15.40
2019-03-11T05:37:06.020Z,12.83
2019-03-11T05:37:37.217Z,14.97
2019-03-11T05:38:09.361Z,15.33
2019-03-11T05:38:40.569Z,12.37
2019-03-11T05:39:11.754Z,14.90
2019-03-11T05:39:42.929Z,12.00
2019-03-11T05:40:18.851Z,12.13
2019-03-11T05:40:50.997Z,12.73
2019-03-11T05:41:22.197Z,13.40
2019-03-11T05:41:53.351Z,11.40
2019-03-11T05:42:24.659Z,10.43
2019-03-11T05:42:55.812Z,12.27
2019-03-11T05:43:27.044Z,10.73
2019-03-11T05:43:58.195Z,10.17
2019-03-11T05:44:29.385Z,14.40
2019-03-11T05:45:00.605Z,10.70
2019-03-11T05:45:31.804Z,16.63
2019-03-11T05:46:02.957Z,10.30
2019-03-11T05:46:34.154Z,11.33
2019-03-11T05:47:05.303Z,12.07
2019-03-11T05:47:36.825Z,20.10
2019-03-11T05:48:07.978Z,23.77
2019-03-11T05:48:39.201Z,19.00
2019-03-11T05:49:10.336Z,17.13
2019-03-11T05:49:42.532Z,16.70
2019-03-11T05:50:14.982Z,15.47
2019-03-11T05:50:46.215Z,12.63
2019-03-11T05:51:17.370Z,14.70
2019-03-11T05:51:48.620Z,10.80
2019-03-11T05:52:19.778Z,11.80
2019-03-11T05:52:51.012Z,12.20
2019-03-11T05:53:22.165Z,11.40
2019-03-11T05:53:53.388Z,10.87
2019-03-11T05:54:24.571Z,9.33
2019-03-11T05:54:55.803Z,10.83
2019-03-11T05:55:27.042Z,13.73
2019-03-11T05:55:58.406Z,9.83
2019-03-11T05:56:30.744Z,12.50
2019-03-11T05:57:02.018Z,17.47
2019-03-11T05:57:33.343Z,15.13
2019-03-11T05:58:04.585Z,15.60
2019-03-11T05:58:36.979Z,18.00
2019-03-11T05:59:08.211Z,16.73
2019-03-11T05:59:39.648Z,21.27
2019-03-11T06:00:29.280Z,29.03
2019-03-11T06:01:00.558Z,25.33
2019-03-11T06:01:31.776Z,25.73
2019-03-11T06:02:02.992Z,18.47
2019-03-11T06:02:36.457Z,20.77
2019-03-11T06:03:08.275Z,14.57
2019-03-11T06:03:39.419Z,12.53
2019-03-11T06:04:10.641Z,14.73
2019-03-11T06:04:41.780Z,18.73
2019-03-11T06:05:12.972Z,13.90
2019-03-11T06:05:44.193Z,15.33
2019-03-11T06:06:15.363Z,12.40
2019-03-11T06:06:46.554Z,15.80
2019-03-11T06:07:17.768Z,12.10
2019-03-11T06:07:48.946Z,12.03
2019-03-11T06:08:21.848Z,13.77
2019-03-11T06:08:53.101Z,14.13
2019-03-11T06:09:24.312Z,12.37
2019-03-11T06:09:55.495Z,13.57
2019-03-11T06:10:26.776Z,12.13
2019-03-11T06:10:57.953Z,13.33
2019-03-11T06:11:29.158Z,12.80
2019-03-11T06:12:00.347Z,9.83
2019-03-11T06:12:31.662Z,13.40
2019-03-11T06:13:02.792Z,15.70
2019-03-11T06:13:36.163Z,12.40
2019-03-11T06:14:07.061Z,12.73
2019-03-11T06:14:38.238Z,12.50
2019-03-11T06:15:11.721Z,15.93
2019-03-11T06:15:42.935Z,13.17
2019-03-11T06:16:14.087Z,12.20
2019-03-11T06:16:45.294Z,9.07
2019-03-11T06:17:16.427Z,12.03
2019-03-11T06:17:47.721Z,14.70
2019-03-11T06:18:20.880Z,11.37
2019-03-11T06:18:52.300Z,14.83
2019-03-11T06:19:23.457Z,8.43
2019-03-11T06:19:56.610Z,10.70
2019-03-11T06:20:42.591Z,11.57
2019-03-11T06:21:15.692Z,11.80
2019-03-11T06:21:48.750Z,9.07
2019-03-11T06:22:21.259Z,16.03
2019-03-11T06:22:52.431Z,14.03
2019-03-11T06:23:23.627Z,14.10
2019-03-11T06:23:54.778Z,11.63
2019-03-11T06:24:25.982Z,9.73
2019-03-11T06:24:57.160Z,17.13
2019-03-11T06:25:28.345Z,10.43
2019-03-11T06:25:59.513Z,12.83
2019-03-11T06:26:30.696Z,12.90
2019-03-11T06:27:01.871Z,14.27
2019-03-11T06:27:34.048Z,14.80
2019-03-11T06:28:05.232Z,12.70
2019-03-11T06:28:36.812Z,11.60
2019-03-11T06:29:08.005Z,10.17
2019-03-11T06:29:39.197Z,10.57
2019-03-11T06:30:10.683Z,13.17
2019-03-11T06:30:41.866Z,10.43
2019-03-11T06:31:13.043Z,12.77
2019-03-11T06:31:44.239Z,11.17
2019-03-11T06:32:15.435Z,14.10
2019-03-11T06:32:46.612Z,11.87
2019-03-11T06:33:17.791Z,11.27
2019-03-11T06:33:48.979Z,9.93
2019-03-11T06:34:20.157Z,10.70
2019-03-11T06:34:51.338Z,9.53
2019-03-11T06:35:22.679Z,17.47
2019-03-11T06:35:53.909Z,11.50
2019-03-11T06:36:25.115Z,9.60
2019-03-11T06:36:56.297Z,14.53
2019-03-11T06:37:27.491Z,15.47
2019-03-11T06:37:58.705Z,9.03
2019-03-11T06:38:29.883Z,21.80
2019-03-11T06:39:06.031Z,16.80
2019-03-11T06:39:37.085Z,15.33
2019-03-11T06:40:10.272Z,9.50
2019-03-11T06:40:41.514Z,13.80
2019-03-11T06:41:12.747Z,15.07
2019-03-11T06:41:43.970Z,11.20
2019-03-11T06:42:15.216Z,9.93
2019-03-11T06:42:46.454Z,12.87
2019-03-11T06:43:17.679Z,10.77
2019-03-11T06:43:48.928Z,9.90
2019-03-11T06:44:20.214Z,13.20
2019-03-11T06:44:51.513Z,12.17
2019-03-11T06:45:22.701Z,13.07
2019-03-11T06:45:53.835Z,13.40
2019-03-11T06:46:25.029Z,14.80
2019-03-11T06:46:56.182Z,13.03
2019-03-11T06:47:27.398Z,14.53
2019-03-11T06:47:58.561Z,14.47
2019-03-11T06:48:29.773Z,14.77
2019-03-11T06:49:00.906Z,9.83